TMG6011 WICC-WADL
Flight info
| Callsign | TMG6011 |
|---|---|
| Flight time | 1h 32m |
| Altitude | 39000 |
| Route | CA T3 BLI LMB |
| Aircraft | B738/M-SDFGHIRWY/EB2 |
Departure
| Time | 2026-04-18 00:19 |
|---|---|
| Airport | Husein Sastranegara International Airport (WICC) |
Arrival
| Time | 2026-04-18 01:51 |
|---|---|
| Airport | Lombok International Airport (WADL) |
| Time | Latitude | Longitude | Altitude | Speed | Heading |
|---|---|---|---|---|---|
| 2026-04-18 00:04 | -6.90290 | 107.57918 | 2413 ft | 0 kts | 189° |
| 2026-04-18 00:13 | -6.90292 | 107.57918 | 2422 ft | 2 kts | 189° |
| 2026-04-18 00:13 | -6.90315 | 107.57917 | 2427 ft | 3 kts | 163° |
| 2026-04-18 00:13 | -6.90324 | 107.57936 | 2431 ft | 3 kts | 104° |
| 2026-04-18 00:14 | -6.90326 | 107.57958 | 2420 ft | 4 kts | 90° |
| 2026-04-18 00:14 | -6.90319 | 107.57994 | 2425 ft | 6 kts | 77° |
| 2026-04-18 00:14 | -6.90307 | 107.58034 | 2430 ft | 6 kts | 69° |
| 2026-04-18 00:14 | -6.90276 | 107.58059 | 2432 ft | 6 kts | 27° |
| 2026-04-18 00:15 | -6.90241 | 107.58079 | 2436 ft | 6 kts | 38° |
| 2026-04-18 00:15 | -6.90235 | 107.58116 | 2431 ft | 6 kts | 99° |
| 2026-04-18 00:15 | -6.90246 | 107.58154 | 2431 ft | 6 kts | 107° |
| 2026-04-18 00:15 | -6.90257 | 107.58192 | 2433 ft | 6 kts | 107° |
| 2026-04-18 00:16 | -6.90269 | 107.58228 | 2436 ft | 5 kts | 107° |
| 2026-04-18 00:16 | -6.90280 | 107.58265 | 2436 ft | 6 kts | 108° |
| 2026-04-18 00:16 | -6.90300 | 107.58326 | 2438 ft | 11 kts | 108° |
| 2026-04-18 00:16 | -6.90328 | 107.58408 | 2438 ft | 13 kts | 108° |
| 2026-04-18 00:17 | -6.90365 | 107.58489 | 2428 ft | 11 kts | 135° |
| 2026-04-18 00:17 | -6.90395 | 107.58537 | 2428 ft | 7 kts | 75° |
| 2026-04-18 00:17 | -6.90381 | 107.58545 | 2425 ft | 1 kts | 336° |
| 2026-04-18 00:17 | -6.90380 | 107.58538 | 2423 ft | 0 kts | 285° |
| 2026-04-18 00:18 | -6.90347 | 107.58436 | 2434 ft | 44 kts | 289° |
| 2026-04-18 00:18 | -6.90244 | 107.58142 | 2436 ft | 88 kts | 289° |
| 2026-04-18 00:19 | -6.89979 | 107.57367 | 2421 ft | 146 kts | 289° |
| 2026-04-18 00:19 | -6.89609 | 107.56254 | 2553 ft | 183 kts | 289° |
| 2026-04-18 00:19 | -6.89164 | 107.55085 | 3391 ft | 175 kts | 291° |
| 2026-04-18 00:19 | -6.88748 | 107.53897 | 3941 ft | 186 kts | 285° |
| 2026-04-18 00:20 | -6.88434 | 107.52586 | 4479 ft | 198 kts | 282° |
| 2026-04-18 00:20 | -6.88085 | 107.51178 | 4933 ft | 216 kts | 285° |
| 2026-04-18 00:20 | -6.87669 | 107.49671 | 5291 ft | 230 kts | 284° |
| 2026-04-18 00:20 | -6.87285 | 107.48074 | 5848 ft | 238 kts | 283° |
| 2026-04-18 00:21 | -6.86879 | 107.46415 | 6419 ft | 246 kts | 283° |
| 2026-04-18 00:21 | -6.86438 | 107.44792 | 7300 ft | 237 kts | 287° |
| 2026-04-18 00:21 | -6.85964 | 107.43197 | 7770 ft | 251 kts | 286° |
| 2026-04-18 00:21 | -6.85471 | 107.41416 | 7966 ft | 275 kts | 285° |
| 2026-04-18 00:22 | -6.84939 | 107.39475 | 8270 ft | 295 kts | 285° |
| 2026-04-18 00:22 | -6.84385 | 107.37466 | 8872 ft | 301 kts | 285° |
| 2026-04-18 00:22 | -6.83820 | 107.35426 | 9536 ft | 304 kts | 285° |
| 2026-04-18 00:22 | -6.83522 | 107.33317 | 10147 ft | 309 kts | 264° |
| 2026-04-18 00:23 | -6.84135 | 107.31212 | 10416 ft | 325 kts | 238° |
| 2026-04-18 00:23 | -6.85662 | 107.29498 | 10752 ft | 334 kts | 214° |
| 2026-04-18 00:23 | -6.87753 | 107.28510 | 11316 ft | 334 kts | 191° |
| 2026-04-18 00:23 | -6.90025 | 107.28409 | 11971 ft | 331 kts | 168° |
| 2026-04-18 00:24 | -6.92153 | 107.29244 | 12601 ft | 331 kts | 144° |
| 2026-04-18 00:24 | -6.93756 | 107.30900 | 13214 ft | 333 kts | 120° |
| 2026-04-18 00:24 | -6.94567 | 107.33090 | 13754 ft | 339 kts | 97° |
| 2026-04-18 00:24 | -6.94462 | 107.35434 | 14341 ft | 341 kts | 76° |
| 2026-04-18 00:25 | -6.93694 | 107.37697 | 15076 ft | 340 kts | 69° |
| 2026-04-18 00:25 | -6.92776 | 107.39895 | 15745 ft | 342 kts | 68° |
| 2026-04-18 00:25 | -6.91835 | 107.42109 | 16324 ft | 346 kts | 68° |
| 2026-04-18 00:25 | -6.90910 | 107.44355 | 16940 ft | 348 kts | 69° |
| 2026-04-18 00:26 | -6.90006 | 107.46625 | 17568 ft | 350 kts | 69° |
| 2026-04-18 00:26 | -6.89118 | 107.48892 | 18093 ft | 355 kts | 70° |
| 2026-04-18 00:26 | -6.88224 | 107.51224 | 18581 ft | 358 kts | 72° |
| 2026-04-18 00:26 | -6.87618 | 107.53662 | 19065 ft | 360 kts | 80° |
| 2026-04-18 00:27 | -6.87180 | 107.56150 | 19527 ft | 363 kts | 82° |
| 2026-04-18 00:27 | -6.86780 | 107.58665 | 20026 ft | 365 kts | 82° |
| 2026-04-18 00:27 | -6.86380 | 107.61205 | 20516 ft | 368 kts | 82° |
| 2026-04-18 00:27 | -6.85969 | 107.63757 | 20989 ft | 371 kts | 82° |
| 2026-04-18 00:28 | -6.85543 | 107.66326 | 21422 ft | 375 kts | 82° |
| 2026-04-18 00:28 | -6.85102 | 107.68927 | 21866 ft | 379 kts | 82° |
| 2026-04-18 00:28 | -6.84649 | 107.71558 | 22283 ft | 383 kts | 82° |
| 2026-04-18 00:28 | -6.84189 | 107.74207 | 22784 ft | 384 kts | 82° |
| 2026-04-18 00:29 | -6.83731 | 107.76828 | 23240 ft | 387 kts | 82° |
| 2026-04-18 00:29 | -6.83262 | 107.79508 | 23630 ft | 390 kts | 82° |
| 2026-04-18 00:29 | -6.82789 | 107.82206 | 23983 ft | 393 kts | 82° |
| 2026-04-18 00:29 | -6.82311 | 107.84930 | 24349 ft | 396 kts | 82° |
| 2026-04-18 00:30 | -6.81830 | 107.87671 | 24727 ft | 398 kts | 81° |
| 2026-04-18 00:30 | -6.81347 | 107.90426 | 25112 ft | 400 kts | 81° |
| 2026-04-18 00:30 | -6.80867 | 107.93158 | 25481 ft | 402 kts | 81° |
| 2026-04-18 00:30 | -6.80378 | 107.95944 | 25850 ft | 404 kts | 81° |
| 2026-04-18 00:31 | -6.79887 | 107.98735 | 26208 ft | 406 kts | 81° |
| 2026-04-18 00:31 | -6.79396 | 108.01534 | 26573 ft | 408 kts | 81° |
| 2026-04-18 00:31 | -6.78899 | 108.04358 | 26927 ft | 410 kts | 81° |
| 2026-04-18 00:31 | -6.78403 | 108.07184 | 27270 ft | 412 kts | 81° |
| 2026-04-18 00:32 | -6.77902 | 108.10030 | 27604 ft | 414 kts | 81° |
| 2026-04-18 00:32 | -6.77405 | 108.12853 | 27932 ft | 416 kts | 81° |
| 2026-04-18 00:32 | -6.76900 | 108.15726 | 28220 ft | 418 kts | 81° |
| 2026-04-18 00:32 | -6.76391 | 108.18618 | 28527 ft | 421 kts | 81° |
| 2026-04-18 00:33 | -6.75879 | 108.21524 | 28871 ft | 422 kts | 81° |
| 2026-04-18 00:33 | -6.75370 | 108.24414 | 29207 ft | 423 kts | 81° |
| 2026-04-18 00:33 | -6.74856 | 108.27329 | 29542 ft | 424 kts | 81° |
| 2026-04-18 00:33 | -6.74339 | 108.30260 | 29828 ft | 427 kts | 81° |
| 2026-04-18 00:34 | -6.73819 | 108.33209 | 30083 ft | 429 kts | 81° |
| 2026-04-18 00:34 | -6.73296 | 108.36173 | 30314 ft | 431 kts | 81° |
| 2026-04-18 00:34 | -6.72769 | 108.39161 | 30525 ft | 434 kts | 81° |
| 2026-04-18 00:34 | -6.72240 | 108.42156 | 30773 ft | 435 kts | 81° |
| 2026-04-18 00:35 | -6.71710 | 108.45157 | 31031 ft | 436 kts | 81° |
| 2026-04-18 00:35 | -6.71184 | 108.48134 | 31252 ft | 438 kts | 81° |
| 2026-04-18 00:35 | -6.70650 | 108.51157 | 31445 ft | 441 kts | 81° |
| 2026-04-18 00:35 | -6.70111 | 108.54207 | 31611 ft | 444 kts | 81° |
| 2026-04-18 00:36 | -6.69892 | 108.57306 | 31755 ft | 446 kts | 96° |
| 2026-04-18 00:36 | -6.70328 | 108.60391 | 31989 ft | 446 kts | 99° |
| 2026-04-18 00:36 | -6.70835 | 108.63460 | 32242 ft | 446 kts | 99° |
| 2026-04-18 00:36 | -6.71351 | 108.66540 | 32441 ft | 448 kts | 99° |
| 2026-04-18 00:37 | -6.71863 | 108.69643 | 32619 ft | 450 kts | 99° |
| 2026-04-18 00:37 | -6.72365 | 108.72762 | 32796 ft | 452 kts | 99° |
| 2026-04-18 00:37 | -6.72860 | 108.75897 | 32971 ft | 454 kts | 99° |
| 2026-04-18 00:37 | -6.73349 | 108.79047 | 33152 ft | 456 kts | 99° |
| 2026-04-18 00:38 | -6.73829 | 108.82166 | 33340 ft | 457 kts | 99° |
| 2026-04-18 00:38 | -6.74315 | 108.85339 | 33537 ft | 459 kts | 99° |
| 2026-04-18 00:38 | -6.74803 | 108.88531 | 33672 ft | 461 kts | 99° |
| 2026-04-18 00:38 | -6.75292 | 108.91726 | 33861 ft | 462 kts | 99° |
| 2026-04-18 00:39 | -6.75781 | 108.94925 | 34144 ft | 460 kts | 99° |
| 2026-04-18 00:39 | -6.76267 | 108.98104 | 34403 ft | 458 kts | 99° |
| 2026-04-18 00:39 | -6.76751 | 109.01271 | 34672 ft | 457 kts | 99° |
| 2026-04-18 00:39 | -6.77228 | 109.04385 | 34939 ft | 455 kts | 99° |
| 2026-04-18 00:40 | -6.77707 | 109.07522 | 35211 ft | 453 kts | 99° |
| 2026-04-18 00:40 | -6.78187 | 109.10663 | 35483 ft | 451 kts | 99° |
| 2026-04-18 00:40 | -6.78663 | 109.13774 | 35772 ft | 449 kts | 99° |
| 2026-04-18 00:40 | -6.79137 | 109.16877 | 36039 ft | 447 kts | 99° |
| 2026-04-18 00:41 | -6.79607 | 109.19962 | 36318 ft | 445 kts | 99° |
| 2026-04-18 00:41 | -6.80077 | 109.23037 | 36604 ft | 442 kts | 99° |
| 2026-04-18 00:41 | -6.80541 | 109.26085 | 36891 ft | 440 kts | 99° |
| 2026-04-18 00:41 | -6.81004 | 109.29122 | 37185 ft | 437 kts | 99° |
| 2026-04-18 00:42 | -6.81463 | 109.32132 | 37478 ft | 434 kts | 99° |
| 2026-04-18 00:42 | -6.81913 | 109.35089 | 37773 ft | 431 kts | 99° |
| 2026-04-18 00:42 | -6.82366 | 109.38063 | 38077 ft | 428 kts | 99° |
| 2026-04-18 00:42 | -6.82815 | 109.41012 | 38343 ft | 426 kts | 99° |
| 2026-04-18 00:43 | -6.83263 | 109.43958 | 38511 ft | 425 kts | 99° |
| 2026-04-18 00:43 | -6.83709 | 109.46891 | 38678 ft | 424 kts | 99° |
| 2026-04-18 00:43 | -6.84155 | 109.49828 | 38829 ft | 423 kts | 99° |
| 2026-04-18 00:44 | -6.85048 | 109.55708 | 38896 ft | 427 kts | 99° |
| 2026-04-18 00:44 | -6.85947 | 109.61627 | 38926 ft | 431 kts | 99° |
| 2026-04-18 00:45 | -6.86857 | 109.67629 | 38922 ft | 435 kts | 98° |
| 2026-04-18 00:45 | -6.87773 | 109.73673 | 38915 ft | 440 kts | 98° |
| 2026-04-18 00:46 | -6.88697 | 109.79781 | 38919 ft | 445 kts | 98° |
| 2026-04-18 00:46 | -6.89633 | 109.85970 | 38916 ft | 449 kts | 98° |
| 2026-04-18 00:47 | -6.90579 | 109.92231 | 38912 ft | 453 kts | 98° |
| 2026-04-18 00:47 | -6.91525 | 109.98499 | 38908 ft | 457 kts | 98° |
| 2026-04-18 00:48 | -6.92485 | 110.04862 | 38913 ft | 461 kts | 98° |
| 2026-04-18 00:48 | -6.93450 | 110.11265 | 38917 ft | 464 kts | 98° |
| 2026-04-18 00:49 | -6.94902 | 110.20916 | 38912 ft | 466 kts | 98° |
| 2026-04-18 00:49 | -6.95871 | 110.27362 | 38913 ft | 466 kts | 98° |
| 2026-04-18 00:50 | -6.96839 | 110.33809 | 38904 ft | 465 kts | 98° |
| 2026-04-18 00:50 | -6.97629 | 110.40248 | 38905 ft | 462 kts | 92° |
| 2026-04-18 00:51 | -6.97754 | 110.46698 | 38914 ft | 460 kts | 90° |
| 2026-04-18 00:51 | -6.97786 | 110.53135 | 38899 ft | 458 kts | 90° |
| 2026-04-18 00:52 | -6.97861 | 110.59530 | 38897 ft | 456 kts | 91° |
| 2026-04-18 00:52 | -6.97968 | 110.65888 | 38904 ft | 455 kts | 91° |
| 2026-04-18 00:53 | -6.98083 | 110.72224 | 38894 ft | 454 kts | 91° |
| 2026-04-18 00:53 | -6.98197 | 110.78597 | 38893 ft | 454 kts | 91° |
| 2026-04-18 00:54 | -6.98308 | 110.84957 | 38895 ft | 455 kts | 91° |
| 2026-04-18 00:54 | -6.98418 | 110.91305 | 38889 ft | 456 kts | 91° |
| 2026-04-18 00:55 | -6.98528 | 110.97702 | 38895 ft | 457 kts | 91° |
| 2026-04-18 00:55 | -6.98638 | 111.04122 | 38892 ft | 458 kts | 91° |
| 2026-04-18 00:56 | -6.98745 | 111.10492 | 38901 ft | 459 kts | 91° |
| 2026-04-18 00:56 | -6.98853 | 111.16931 | 38895 ft | 460 kts | 91° |
| 2026-04-18 00:57 | -6.98961 | 111.23377 | 38894 ft | 460 kts | 91° |
| 2026-04-18 00:57 | -6.99066 | 111.29795 | 38896 ft | 461 kts | 91° |
| 2026-04-18 00:58 | -6.99173 | 111.36286 | 38893 ft | 461 kts | 90° |
| 2026-04-18 00:58 | -6.99496 | 111.42708 | 38893 ft | 461 kts | 99° |
| 2026-04-18 00:59 | -7.01124 | 111.48926 | 38897 ft | 460 kts | 106° |
| 2026-04-18 00:59 | -7.02958 | 111.55113 | 38896 ft | 460 kts | 106° |
| 2026-04-18 01:00 | -7.04750 | 111.61272 | 38894 ft | 459 kts | 105° |
| 2026-04-18 01:00 | -7.06508 | 111.67437 | 38903 ft | 459 kts | 105° |
| 2026-04-18 01:01 | -7.08259 | 111.73630 | 38899 ft | 458 kts | 105° |
| 2026-04-18 01:01 | -7.09998 | 111.79787 | 38895 ft | 458 kts | 105° |
| 2026-04-18 01:02 | -7.11737 | 111.85945 | 38889 ft | 457 kts | 105° |
| 2026-04-18 01:02 | -7.13477 | 111.92106 | 38894 ft | 457 kts | 105° |
| 2026-04-18 01:03 | -7.15211 | 111.98246 | 38897 ft | 456 kts | 105° |
| 2026-04-18 01:03 | -7.16952 | 112.04414 | 38903 ft | 456 kts | 105° |
| 2026-04-18 01:04 | -7.18678 | 112.10537 | 38896 ft | 456 kts | 105° |
| 2026-04-18 01:04 | -7.20404 | 112.16658 | 38899 ft | 456 kts | 105° |
| 2026-04-18 01:05 | -7.22145 | 112.22839 | 38903 ft | 456 kts | 105° |
| 2026-04-18 01:05 | -7.23871 | 112.28969 | 38901 ft | 456 kts | 105° |
| 2026-04-18 01:06 | -7.25310 | 112.34081 | 38901 ft | 456 kts | 105° |
| 2026-04-18 01:06 | -7.27031 | 112.40200 | 38896 ft | 456 kts | 105° |
| 2026-04-18 01:07 | -7.28762 | 112.46358 | 38892 ft | 456 kts | 105° |
| 2026-04-18 01:07 | -7.30766 | 112.53491 | 38901 ft | 455 kts | 105° |
| 2026-04-18 01:08 | -7.32495 | 112.59648 | 38911 ft | 455 kts | 105° |
| 2026-04-18 01:08 | -7.33925 | 112.64747 | 38913 ft | 455 kts | 105° |
| 2026-04-18 01:09 | -7.35642 | 112.70870 | 38904 ft | 455 kts | 105° |
| 2026-04-18 01:09 | -7.37367 | 112.77030 | 38912 ft | 455 kts | 104° |
| 2026-04-18 01:10 | -7.38806 | 112.83214 | 38915 ft | 455 kts | 101° |
| 2026-04-18 01:10 | -7.40084 | 112.89437 | 38911 ft | 455 kts | 101° |
| 2026-04-18 01:11 | -7.41370 | 112.95656 | 38901 ft | 455 kts | 101° |
| 2026-04-18 01:11 | -7.42687 | 113.01888 | 38905 ft | 454 kts | 101° |
| 2026-04-18 01:12 | -7.44022 | 113.08144 | 38902 ft | 454 kts | 101° |
| 2026-04-18 01:12 | -7.45346 | 113.14350 | 38893 ft | 454 kts | 101° |
| 2026-04-18 01:13 | -7.46666 | 113.20540 | 38900 ft | 454 kts | 101° |
| 2026-04-18 01:13 | -7.47995 | 113.26783 | 38896 ft | 454 kts | 101° |
| 2026-04-18 01:14 | -7.49311 | 113.32968 | 38902 ft | 453 kts | 101° |
| 2026-04-18 01:14 | -7.50635 | 113.39195 | 38908 ft | 453 kts | 101° |
| 2026-04-18 01:15 | -7.51956 | 113.45414 | 38899 ft | 453 kts | 101° |
| 2026-04-18 01:15 | -7.53267 | 113.51587 | 38902 ft | 453 kts | 101° |
| 2026-04-18 01:16 | -7.54586 | 113.57808 | 38907 ft | 453 kts | 101° |
| 2026-04-18 01:16 | -7.55902 | 113.64016 | 38906 ft | 452 kts | 101° |
| 2026-04-18 01:17 | -7.57213 | 113.70201 | 38920 ft | 452 kts | 101° |
| 2026-04-18 01:17 | -7.58526 | 113.76404 | 38924 ft | 452 kts | 101° |
| 2026-04-18 01:18 | -7.59832 | 113.82581 | 38916 ft | 452 kts | 101° |
| 2026-04-18 01:18 | -7.61141 | 113.88774 | 38915 ft | 452 kts | 101° |
| 2026-04-18 01:19 | -7.62444 | 113.94945 | 38776 ft | 455 kts | 101° |
| 2026-04-18 01:19 | -7.63105 | 113.98077 | 38539 ft | 457 kts | 101° |
| 2026-04-18 01:19 | -7.63763 | 114.01196 | 38275 ft | 454 kts | 101° |
| 2026-04-18 01:20 | -7.64420 | 114.04307 | 38006 ft | 451 kts | 101° |
| 2026-04-18 01:20 | -7.65077 | 114.07425 | 37747 ft | 451 kts | 101° |
| 2026-04-18 01:20 | -7.65721 | 114.10480 | 37488 ft | 450 kts | 101° |
| 2026-04-18 01:20 | -7.66377 | 114.13593 | 37237 ft | 450 kts | 101° |
| 2026-04-18 01:21 | -7.67021 | 114.16649 | 36986 ft | 450 kts | 101° |
| 2026-04-18 01:21 | -7.67671 | 114.19736 | 36743 ft | 450 kts | 101° |
| 2026-04-18 01:21 | -7.68319 | 114.22819 | 36502 ft | 450 kts | 101° |
| 2026-04-18 01:21 | -7.68972 | 114.25923 | 36262 ft | 451 kts | 101° |
| 2026-04-18 01:22 | -7.69623 | 114.29019 | 36026 ft | 452 kts | 101° |
| 2026-04-18 01:22 | -7.70275 | 114.32119 | 35789 ft | 453 kts | 101° |
| 2026-04-18 01:22 | -7.70923 | 114.35201 | 35568 ft | 453 kts | 101° |
| 2026-04-18 01:22 | -7.71577 | 114.38308 | 35489 ft | 440 kts | 102° |
| 2026-04-18 01:23 | -7.72209 | 114.41284 | 35269 ft | 431 kts | 102° |
| 2026-04-18 01:23 | -7.72834 | 114.44208 | 34928 ft | 427 kts | 102° |
| 2026-04-18 01:23 | -7.73459 | 114.47131 | 34501 ft | 425 kts | 102° |
| 2026-04-18 01:23 | -7.74081 | 114.50037 | 34068 ft | 423 kts | 102° |
| 2026-04-18 01:24 | -7.74699 | 114.52934 | 33628 ft | 421 kts | 102° |
| 2026-04-18 01:24 | -7.75304 | 114.55772 | 33241 ft | 417 kts | 102° |
| 2026-04-18 01:24 | -7.75911 | 114.58617 | 32870 ft | 413 kts | 102° |
| 2026-04-18 01:24 | -7.76511 | 114.61438 | 32494 ft | 409 kts | 102° |
| 2026-04-18 01:25 | -7.77110 | 114.64250 | 32097 ft | 406 kts | 102° |
| 2026-04-18 01:25 | -7.77701 | 114.67028 | 31719 ft | 403 kts | 102° |
| 2026-04-18 01:25 | -7.78280 | 114.69749 | 31355 ft | 400 kts | 102° |
| 2026-04-18 01:25 | -7.78862 | 114.72487 | 30988 ft | 397 kts | 102° |
| 2026-04-18 01:26 | -7.79439 | 114.75200 | 30636 ft | 394 kts | 101° |
| 2026-04-18 01:26 | -7.80013 | 114.77903 | 30287 ft | 391 kts | 101° |
| 2026-04-18 01:26 | -7.80581 | 114.80580 | 29918 ft | 389 kts | 101° |
| 2026-04-18 01:26 | -7.81145 | 114.83234 | 29508 ft | 386 kts | 101° |
| 2026-04-18 01:27 | -7.81706 | 114.85877 | 29090 ft | 382 kts | 101° |
| 2026-04-18 01:27 | -7.82261 | 114.88492 | 28677 ft | 380 kts | 101° |
| 2026-04-18 01:27 | -7.82812 | 114.91088 | 28269 ft | 377 kts | 101° |
| 2026-04-18 01:27 | -7.83356 | 114.93658 | 27870 ft | 374 kts | 101° |
| 2026-04-18 01:28 | -7.83893 | 114.96189 | 27483 ft | 371 kts | 101° |
| 2026-04-18 01:28 | -7.84432 | 114.98731 | 27091 ft | 369 kts | 101° |
| 2026-04-18 01:28 | -7.84967 | 115.01257 | 26717 ft | 366 kts | 101° |
| 2026-04-18 01:28 | -7.85497 | 115.03761 | 26343 ft | 364 kts | 101° |
| 2026-04-18 01:29 | -7.86025 | 115.06255 | 25973 ft | 362 kts | 101° |
| 2026-04-18 01:29 | -7.86548 | 115.08727 | 25611 ft | 359 kts | 101° |
| 2026-04-18 01:29 | -7.87069 | 115.11189 | 25248 ft | 357 kts | 101° |
| 2026-04-18 01:29 | -7.87586 | 115.13630 | 24893 ft | 355 kts | 101° |
| 2026-04-18 01:30 | -7.88093 | 115.16030 | 24547 ft | 353 kts | 101° |
| 2026-04-18 01:30 | -7.88604 | 115.18445 | 24210 ft | 351 kts | 101° |
| 2026-04-18 01:30 | -7.89110 | 115.20841 | 23869 ft | 349 kts | 101° |
| 2026-04-18 01:30 | -7.89615 | 115.23229 | 23543 ft | 347 kts | 101° |
| 2026-04-18 01:31 | -7.90117 | 115.25608 | 23140 ft | 345 kts | 101° |
| 2026-04-18 01:31 | -7.90616 | 115.27971 | 22757 ft | 343 kts | 101° |
| 2026-04-18 01:31 | -7.91113 | 115.30322 | 22367 ft | 340 kts | 101° |
| 2026-04-18 01:31 | -7.91604 | 115.32648 | 21989 ft | 338 kts | 101° |
| 2026-04-18 01:32 | -7.92092 | 115.34962 | 21616 ft | 337 kts | 101° |
| 2026-04-18 01:32 | -7.92572 | 115.37241 | 21250 ft | 335 kts | 101° |
| 2026-04-18 01:32 | -7.93056 | 115.39536 | 20896 ft | 333 kts | 101° |
| 2026-04-18 01:32 | -7.93537 | 115.41817 | 20537 ft | 331 kts | 101° |
| 2026-04-18 01:33 | -7.94015 | 115.44086 | 20186 ft | 330 kts | 101° |
| 2026-04-18 01:33 | -7.94491 | 115.46345 | 19835 ft | 328 kts | 101° |
| 2026-04-18 01:33 | -7.94963 | 115.48587 | 19498 ft | 326 kts | 101° |
| 2026-04-18 01:33 | -7.95434 | 115.50822 | 19166 ft | 325 kts | 102° |
| 2026-04-18 01:34 | -7.95903 | 115.53053 | 18820 ft | 323 kts | 102° |
| 2026-04-18 01:34 | -7.96362 | 115.55231 | 18494 ft | 319 kts | 102° |
| 2026-04-18 01:34 | -7.96821 | 115.57417 | 17968 ft | 316 kts | 102° |
| 2026-04-18 01:34 | -7.97278 | 115.59589 | 17346 ft | 316 kts | 102° |
| 2026-04-18 01:35 | -7.97732 | 115.61747 | 16785 ft | 314 kts | 102° |
| 2026-04-18 01:35 | -7.98183 | 115.63893 | 16263 ft | 311 kts | 102° |
| 2026-04-18 01:35 | -7.98630 | 115.66019 | 15746 ft | 308 kts | 102° |
| 2026-04-18 01:35 | -7.99342 | 115.68048 | 15179 ft | 307 kts | 120° |
| 2026-04-18 01:36 | -8.00700 | 115.69704 | 14657 ft | 308 kts | 138° |
| 2026-04-18 01:36 | -8.02362 | 115.71035 | 14281 ft | 309 kts | 141° |
| 2026-04-18 01:36 | -8.04071 | 115.72326 | 14007 ft | 303 kts | 142° |
| 2026-04-18 01:36 | -8.05748 | 115.73589 | 13505 ft | 301 kts | 141° |
| 2026-04-18 01:37 | -8.07430 | 115.74864 | 12894 ft | 301 kts | 141° |
| 2026-04-18 01:37 | -8.09099 | 115.76141 | 12350 ft | 300 kts | 141° |
| 2026-04-18 01:37 | -8.10754 | 115.77413 | 11843 ft | 297 kts | 141° |
| 2026-04-18 01:37 | -8.12399 | 115.78682 | 11328 ft | 296 kts | 141° |
| 2026-04-18 01:38 | -8.14031 | 115.79942 | 10828 ft | 294 kts | 141° |
| 2026-04-18 01:38 | -8.15631 | 115.81177 | 10361 ft | 292 kts | 141° |
| 2026-04-18 01:38 | -8.17263 | 115.82387 | 9884 ft | 291 kts | 145° |
| 2026-04-18 01:38 | -8.18988 | 115.83475 | 9438 ft | 292 kts | 148° |
| 2026-04-18 01:39 | -8.20726 | 115.84510 | 9186 ft | 288 kts | 149° |
| 2026-04-18 01:39 | -8.22450 | 115.85529 | 8878 ft | 286 kts | 149° |
| 2026-04-18 01:39 | -8.24165 | 115.86548 | 8553 ft | 285 kts | 149° |
| 2026-04-18 01:39 | -8.25847 | 115.87553 | 8248 ft | 283 kts | 148° |
| 2026-04-18 01:40 | -8.27541 | 115.88569 | 7947 ft | 282 kts | 148° |
| 2026-04-18 01:40 | -8.29225 | 115.89584 | 7643 ft | 281 kts | 148° |
| 2026-04-18 01:40 | -8.30898 | 115.90594 | 7382 ft | 278 kts | 149° |
| 2026-04-18 01:40 | -8.32562 | 115.91601 | 7069 ft | 278 kts | 149° |
| 2026-04-18 01:41 | -8.34216 | 115.92602 | 6795 ft | 276 kts | 149° |
| 2026-04-18 01:41 | -8.35864 | 115.93600 | 6511 ft | 275 kts | 149° |
| 2026-04-18 01:41 | -8.37476 | 115.94577 | 6407 ft | 267 kts | 149° |
| 2026-04-18 01:41 | -8.39036 | 115.95523 | 6170 ft | 263 kts | 149° |
| 2026-04-18 01:42 | -8.40595 | 115.96469 | 6009 ft | 257 kts | 149° |
| 2026-04-18 01:42 | -8.42102 | 115.97383 | 5915 ft | 245 kts | 149° |
| 2026-04-18 01:42 | -8.43542 | 115.98256 | 5718 ft | 240 kts | 149° |
| 2026-04-18 01:42 | -8.44958 | 115.99116 | 5526 ft | 236 kts | 148° |
| 2026-04-18 01:43 | -8.46367 | 115.99970 | 5270 ft | 236 kts | 148° |
| 2026-04-18 01:43 | -8.47765 | 116.00819 | 5047 ft | 235 kts | 148° |
| 2026-04-18 01:43 | -8.49164 | 116.01668 | 4832 ft | 232 kts | 148° |
| 2026-04-18 01:43 | -8.50525 | 116.02494 | 4607 ft | 225 kts | 148° |
| 2026-04-18 01:44 | -8.51832 | 116.03288 | 4492 ft | 213 kts | 148° |
| 2026-04-18 01:44 | -8.53063 | 116.04035 | 4464 ft | 202 kts | 148° |
| 2026-04-18 01:44 | -8.54244 | 116.04753 | 4474 ft | 199 kts | 148° |
| 2026-04-18 01:44 | -8.55468 | 116.05496 | 4181 ft | 210 kts | 148° |
| 2026-04-18 01:45 | -8.56700 | 116.06244 | 4105 ft | 199 kts | 148° |
| 2026-04-18 01:45 | -8.57858 | 116.06946 | 4098 ft | 189 kts | 148° |
| 2026-04-18 01:45 | -8.58980 | 116.07627 | 4120 ft | 191 kts | 147° |
| 2026-04-18 01:45 | -8.60130 | 116.08361 | 4120 ft | 199 kts | 140° |
| 2026-04-18 01:46 | -8.61114 | 116.09345 | 4117 ft | 198 kts | 131° |
| 2026-04-18 01:46 | -8.61995 | 116.10380 | 4088 ft | 191 kts | 129° |
| 2026-04-18 01:46 | -8.62830 | 116.11405 | 3914 ft | 188 kts | 129° |
| 2026-04-18 01:46 | -8.63648 | 116.12424 | 3683 ft | 185 kts | 129° |
| 2026-04-18 01:47 | -8.64435 | 116.13409 | 3459 ft | 178 kts | 128° |
| 2026-04-18 01:47 | -8.65199 | 116.14364 | 3241 ft | 172 kts | 128° |
| 2026-04-18 01:47 | -8.65932 | 116.15282 | 3039 ft | 162 kts | 128° |
| 2026-04-18 01:47 | -8.66633 | 116.16157 | 2830 ft | 159 kts | 128° |
| 2026-04-18 01:48 | -8.67325 | 116.17022 | 2624 ft | 156 kts | 128° |
| 2026-04-18 01:48 | -8.68001 | 116.17872 | 2415 ft | 154 kts | 128° |
| 2026-04-18 01:48 | -8.68663 | 116.18697 | 2217 ft | 149 kts | 128° |
| 2026-04-18 01:48 | -8.69295 | 116.19485 | 2036 ft | 146 kts | 128° |
| 2026-04-18 01:49 | -8.69925 | 116.20272 | 1849 ft | 143 kts | 128° |
| 2026-04-18 01:49 | -8.70549 | 116.21053 | 1668 ft | 143 kts | 128° |
| 2026-04-18 01:49 | -8.71173 | 116.21838 | 1488 ft | 142 kts | 127° |
| 2026-04-18 01:49 | -8.71791 | 116.22608 | 1307 ft | 141 kts | 127° |
| 2026-04-18 01:50 | -8.72420 | 116.23394 | 1136 ft | 146 kts | 128° |
| 2026-04-18 01:50 | -8.73057 | 116.24191 | 925 ft | 143 kts | 130° |
| 2026-04-18 01:50 | -8.73669 | 116.24966 | 751 ft | 139 kts | 128° |
| 2026-04-18 01:50 | -8.74254 | 116.25740 | 517 ft | 135 kts | 130° |
| 2026-04-18 01:51 | -8.74842 | 116.26435 | 386 ft | 129 kts | 131° |
| 2026-04-18 01:51 | -8.75384 | 116.27107 | 328 ft | 110 kts | 129° |
| 2026-04-18 01:51 | -8.75770 | 116.27590 | 327 ft | 67 kts | 128° |
| 2026-04-18 01:51 | -8.75940 | 116.27800 | 325 ft | 24 kts | 130° |
| 2026-04-18 01:52 | -8.75998 | 116.27832 | 326 ft | 2 kts | 212° |
| 2026-04-18 01:52 | -8.76012 | 116.27820 | 326 ft | 3 kts | 218° |
| 2026-04-18 01:52 | -8.76027 | 116.27809 | 329 ft | 3 kts | 218° |
| 2026-04-18 01:52 | -8.76044 | 116.27795 | 328 ft | 4 kts | 218° |
| 2026-04-18 01:53 | -8.76067 | 116.27777 | 328 ft | 5 kts | 218° |
| 2026-04-18 01:53 | -8.76096 | 116.27753 | 325 ft | 6 kts | 220° |
| 2026-04-18 01:53 | -8.76128 | 116.27725 | 328 ft | 7 kts | 220° |
| 2026-04-18 01:54 | -8.76176 | 116.27647 | 325 ft | 7 kts | 281° |
| 2026-04-18 01:54 | -8.76152 | 116.27603 | 327 ft | 7 kts | 305° |
| 2026-04-18 01:54 | -8.76135 | 116.27579 | 328 ft | 0 kts | 305° |
| 2026-04-18 01:54 | -8.76134 | 116.27576 | 328 ft | 1 kts | 305° |
| 2026-04-18 01:55 | -8.76129 | 116.27570 | 328 ft | 2 kts | 306° |
| 2026-04-18 01:55 | -8.76124 | 116.27564 | 325 ft | 0 kts | 310° |
| 2026-04-18 01:55 | -8.76121 | 116.27560 | 327 ft | 1 kts | 310° |
| 2026-04-18 01:55 | -8.76114 | 116.27552 | 327 ft | 2 kts | 310° |
| 2026-04-18 01:56 | -8.76103 | 116.27539 | 328 ft | 3 kts | 310° |
| 2026-04-18 01:56 | -8.76092 | 116.27525 | 328 ft | 0 kts | 308° |
| 2026-04-18 01:56 | -8.76090 | 116.27523 | 328 ft | 1 kts | 308° |
| 2026-04-18 01:56 | -8.76087 | 116.27520 | 328 ft | 1 kts | 308° |
| 2026-04-18 01:57 | -8.76080 | 116.27511 | 325 ft | 2 kts | 307° |
| 2026-04-18 01:57 | -8.76071 | 116.27498 | 328 ft | 3 kts | 305° |
| 2026-04-18 01:57 | -8.76058 | 116.27483 | 328 ft | 3 kts | 313° |
| 2026-04-18 01:57 | -8.76045 | 116.27469 | 327 ft | 1 kts | 311° |
| 2026-04-18 01:58 | -8.76048 | 116.27464 | 327 ft | 1 kts | 250° |
| 2026-04-18 01:58 | -8.76054 | 116.27452 | 328 ft | 5 kts | 243° |
| 2026-04-18 01:58 | -8.76083 | 116.27422 | 326 ft | 4 kts | 218° |
| 2026-04-18 01:58 | -8.76098 | 116.27411 | 328 ft | 2 kts | 217° |
| 2026-04-18 01:59 | -8.76100 | 116.27409 | 328 ft | 0 kts | 217° |